createdAt,value
2023-04-29T00:01:20.971Z,21.88
2023-04-29T00:03:49.698Z,21.17
2023-04-29T00:06:18.117Z,20.45
2023-04-29T00:08:46.292Z,19.15
2023-04-29T00:11:14.288Z,21.63
2023-04-29T00:13:42.263Z,19.73
2023-04-29T00:16:11.405Z,21.20
2023-04-29T00:18:40.827Z,20.55
2023-04-29T00:21:09.313Z,21.67
2023-04-29T00:23:37.402Z,21.92
2023-04-29T00:26:05.419Z,23.42
2023-04-29T00:28:33.803Z,24.05
2023-04-29T00:31:02.260Z,24.65
2023-04-29T00:33:30.295Z,25.98
2023-04-29T00:35:59.657Z,25.27
2023-04-29T00:38:27.626Z,26.73
2023-04-29T00:40:56.019Z,28.20
2023-04-29T00:43:24.333Z,27.70
2023-04-29T00:45:52.490Z,27.30
2023-04-29T00:48:20.564Z,28.30
2023-04-29T00:50:48.761Z,27.48
2023-04-29T00:53:18.190Z,27.80
2023-04-29T00:55:46.276Z,27.67
2023-04-29T00:58:14.268Z,27.40
2023-04-29T01:00:44.077Z,27.15
2023-04-29T01:03:12.346Z,28.10
2023-04-29T01:05:40.559Z,27.08
2023-04-29T01:08:22.053Z,24.38
2023-04-29T01:10:55.960Z,26.05
2023-04-29T01:13:30.782Z,26.75
2023-04-29T01:16:03.729Z,24.45
2023-04-29T01:18:35.085Z,23.58
2023-04-29T01:21:03.101Z,21.50
2023-04-29T01:23:32.830Z,24.42
2023-04-29T01:26:00.887Z,23.25
2023-04-29T01:28:42.041Z,23.85
2023-04-29T01:31:16.751Z,26.35
2023-04-29T01:33:49.921Z,26.63
2023-04-29T01:38:57.655Z,28.30
2023-04-29T01:41:32.750Z,27.02
2023-04-29T01:44:01.826Z,29.25
2023-04-29T01:46:30.193Z,31.23
2023-04-29T01:48:58.390Z,33.45
2023-04-29T01:51:26.503Z,30.45
2023-04-29T01:53:55.926Z,30.35
2023-04-29T01:56:23.922Z,31.63
2023-04-29T01:58:52.302Z,32.00
2023-04-29T02:01:20.337Z,33.70
2023-04-29T02:03:48.702Z,32.35
2023-04-29T02:06:16.896Z,33.53
2023-04-29T02:08:44.908Z,33.47
2023-04-29T02:11:14.256Z,32.30
2023-04-29T02:13:42.300Z,32.53
2023-04-29T02:16:11.524Z,31.48
2023-04-29T02:18:40.145Z,29.45
2023-04-29T02:21:08.639Z,26.10
2023-04-29T02:23:36.961Z,27.75
2023-04-29T02:26:06.262Z,29.33
2023-04-29T02:28:35.811Z,26.85
2023-04-29T02:31:03.896Z,27.05
2023-04-29T02:33:31.946Z,27.23
2023-04-29T02:36:00.383Z,28.27
2023-04-29T02:38:28.406Z,27.20
2023-04-29T02:40:56.381Z,26.90
2023-04-29T02:43:24.465Z,29.52
2023-04-29T02:45:53.890Z,29.52
2023-04-29T02:48:21.934Z,31.00
2023-04-29T02:50:49.926Z,31.40
2023-04-29T02:53:17.913Z,31.10
2023-04-29T02:55:45.965Z,31.25
2023-04-29T02:58:14.281Z,33.35
2023-04-29T03:00:43.009Z,29.77
2023-04-29T03:03:12.548Z,31.98
2023-04-29T03:05:40.778Z,30.25
2023-04-29T03:08:10.313Z,30.58
2023-04-29T03:10:41.444Z,29.58
2023-04-29T03:13:09.876Z,28.98
2023-04-29T03:15:39.472Z,27.88
2023-04-29T03:18:07.525Z,27.02
2023-04-29T03:20:37.029Z,31.23
2023-04-29T03:23:05.230Z,28.52
2023-04-29T03:25:33.219Z,31.65
2023-04-29T03:28:01.214Z,32.45
2023-04-29T03:30:29.224Z,31.73
2023-04-29T03:32:57.463Z,31.90
2023-04-29T03:35:25.642Z,31.33
2023-04-29T03:37:55.002Z,35.33
2023-04-29T03:40:23.206Z,37.80
2023-04-29T03:42:51.337Z,44.42
2023-04-29T03:45:19.424Z,51.42
2023-04-29T03:47:47.441Z,48.47
2023-04-29T03:50:15.863Z,48.72
2023-04-29T03:52:43.854Z,49.92
2023-04-29T03:55:13.884Z,52.30
2023-04-29T03:57:42.612Z,53.13
2023-04-29T04:00:11.739Z,55.15
2023-04-29T04:02:39.901Z,51.80
2023-04-29T04:05:08.353Z,52.35
2023-04-29T04:07:36.379Z,51.95
2023-04-29T04:10:05.439Z,49.88
2023-04-29T04:12:34.876Z,48.90
2023-04-29T04:15:04.082Z,49.75
2023-04-29T04:17:32.135Z,46.33
2023-04-29T04:20:00.173Z,45.38
2023-04-29T04:22:28.151Z,42.03
2023-04-29T04:24:56.383Z,41.35
2023-04-29T04:27:24.511Z,39.67
2023-04-29T04:29:56.482Z,39.47
2023-04-29T04:32:24.674Z,37.65
2023-04-29T04:34:52.919Z,38.20
2023-04-29T04:37:20.923Z,37.47
2023-04-29T04:39:49.348Z,38.55
2023-04-29T04:42:17.331Z,37.40
2023-04-29T04:44:45.432Z,36.13
2023-04-29T04:47:14.758Z,36.53
2023-04-29T04:49:42.774Z,36.95
2023-04-29T04:52:11.629Z,38.10
2023-04-29T04:54:39.612Z,39.15
2023-04-29T04:57:07.655Z,39.75
2023-04-29T04:59:35.870Z,41.75
2023-04-29T05:02:03.966Z,42.88
2023-04-29T05:04:33.501Z,44.85
2023-04-29T05:07:01.533Z,43.17
2023-04-29T05:09:29.574Z,42.05
2023-04-29T05:11:59.416Z,39.70
2023-04-29T05:14:27.608Z,39.05
2023-04-29T05:16:59.915Z,37.97
2023-04-29T05:19:27.949Z,38.25
2023-04-29T05:21:57.289Z,37.83
2023-04-29T05:24:26.197Z,38.03
2023-04-29T05:26:54.188Z,37.47
2023-04-29T05:29:22.159Z,38.45
2023-04-29T05:31:50.431Z,36.22
2023-04-29T05:34:18.579Z,34.85
2023-04-29T05:36:46.741Z,37.80
2023-04-29T05:39:16.752Z,36.90
2023-04-29T05:41:44.802Z,36.55
2023-04-29T05:44:12.773Z,35.10
2023-04-29T05:46:40.861Z,35.58
2023-04-29T05:49:08.936Z,35.92
2023-04-29T05:51:37.002Z,35.95
2023-04-29T05:54:05.094Z,37.60
2023-04-29T05:56:34.482Z,35.03
2023-04-29T05:59:02.494Z,35.17
2023-04-29T06:01:30.541Z,32.70
2023-04-29T06:03:58.994Z,32.55
2023-04-29T06:06:27.404Z,32.20
2023-04-29T06:08:55.517Z,33.13
2023-04-29T06:11:23.575Z,34.72
2023-04-29T06:13:52.914Z,32.33
2023-04-29T06:16:21.427Z,32.92
2023-04-29T06:18:50.247Z,36.63
2023-04-29T06:21:18.242Z,35.40
2023-04-29T06:23:46.333Z,36.35
2023-04-29T06:26:14.586Z,37.70
2023-04-29T06:28:42.606Z,34.00
2023-04-29T06:31:12.569Z,37.17
2023-04-29T06:33:40.715Z,33.72
2023-04-29T06:36:08.920Z,35.08
2023-04-29T06:38:36.893Z,36.20
2023-04-29T06:41:05.023Z,34.42
2023-04-29T06:43:33.012Z,34.67
2023-04-29T06:46:01.256Z,34.78
2023-04-29T06:48:30.605Z,33.55
2023-04-29T06:51:00.008Z,34.78
2023-04-29T06:53:28.214Z,35.45
2023-04-29T06:55:56.244Z,33.67
2023-04-29T06:58:24.253Z,36.30
2023-04-29T07:00:52.740Z,35.45
2023-04-29T07:03:20.807Z,34.85
2023-04-29T07:05:50.268Z,34.88
2023-04-29T07:08:18.259Z,34.97
2023-04-29T07:10:46.751Z,34.28
2023-04-29T07:13:14.775Z,36.35
2023-04-29T07:15:42.774Z,35.60
2023-04-29T07:18:10.943Z,35.28
2023-04-29T07:20:38.959Z,36.83
2023-04-29T07:23:08.330Z,36.08
2023-04-29T07:25:36.875Z,34.83
2023-04-29T07:28:04.941Z,35.35
2023-04-29T07:30:33.114Z,37.67
2023-04-29T07:33:01.659Z,36.38
2023-04-29T07:35:29.723Z,35.50
2023-04-29T07:37:57.849Z,34.22
2023-04-29T07:40:27.204Z,32.95
2023-04-29T07:42:55.189Z,31.02
2023-04-29T07:45:23.238Z,31.25
2023-04-29T07:47:51.394Z,28.40
2023-04-29T07:50:19.688Z,28.42
2023-04-29T07:52:47.689Z,29.17
2023-04-29T07:55:15.932Z,29.10
2023-04-29T07:57:45.282Z,29.02
2023-04-29T08:00:13.986Z,26.52
2023-04-29T08:02:42.627Z,26.25
2023-04-29T08:05:11.545Z,24.05
2023-04-29T08:07:39.907Z,24.00
2023-04-29T08:10:09.979Z,23.20
2023-04-29T08:12:38.043Z,23.58
2023-04-29T08:15:09.753Z,21.98
2023-04-29T08:17:38.136Z,22.38
2023-04-29T08:20:08.082Z,20.55
2023-04-29T08:22:36.605Z,20.02
2023-04-29T08:25:05.716Z,20.00
2023-04-29T08:27:33.800Z,20.73
2023-04-29T08:30:01.794Z,19.80
2023-04-29T08:32:31.362Z,19.20
2023-04-29T08:34:59.352Z,19.98
2023-04-29T08:37:27.736Z,19.75
2023-04-29T08:39:55.723Z,19.02
2023-04-29T08:42:34.144Z,19.48
2023-04-29T08:45:02.415Z,20.38
2023-04-29T08:47:33.482Z,20.65
2023-04-29T08:50:04.868Z,20.58
2023-04-29T08:52:33.257Z,22.95
2023-04-29T08:55:02.561Z,23.23
2023-04-29T08:57:32.497Z,20.27
2023-04-29T09:00:01.336Z,21.05
2023-04-29T09:02:29.692Z,22.02
2023-04-29T09:05:07.391Z,24.73
2023-04-29T09:07:36.129Z,22.13
2023-04-29T09:10:06.723Z,22.08
2023-04-29T09:12:36.147Z,23.80
2023-04-29T09:15:04.700Z,22.98
2023-04-29T09:17:42.874Z,23.05
2023-04-29T09:20:31.624Z,24.80
2023-04-29T09:23:01.502Z,24.92
2023-04-29T09:25:29.674Z,24.95
2023-04-29T09:27:57.676Z,25.67
2023-04-29T09:30:26.766Z,28.92
2023-04-29T09:33:09.004Z,30.00
2023-04-29T09:35:41.041Z,27.83
2023-04-29T09:38:16.459Z,30.10
2023-04-29T09:40:57.680Z,29.33
2023-04-29T09:43:26.784Z,31.83
2023-04-29T09:45:55.020Z,31.75
2023-04-29T09:48:23.218Z,34.58
2023-04-29T09:51:03.297Z,34.65
2023-04-29T09:53:32.598Z,33.15
2023-04-29T09:56:03.068Z,34.42
2023-04-29T09:58:36.978Z,35.17
2023-04-29T10:01:05.724Z,35.67
2023-04-29T10:03:35.530Z,35.33
2023-04-29T10:06:06.561Z,37.67
2023-04-29T10:08:35.469Z,37.67
2023-04-29T10:11:05.865Z,37.15
2023-04-29T10:13:38.344Z,35.83
2023-04-29T10:16:12.500Z,35.30
2023-04-29T10:18:43.442Z,36.20
2023-04-29T10:21:15.323Z,34.75
2023-04-29T10:23:45.071Z,36.35
2023-04-29T10:26:13.902Z,35.85
2023-04-29T10:28:42.092Z,36.35
2023-04-29T10:31:10.313Z,35.08
2023-04-29T10:33:38.954Z,34.45
2023-04-29T10:36:07.699Z,32.17
2023-04-29T10:38:40.866Z,31.98
2023-04-29T10:43:38.247Z,31.40
2023-04-29T10:46:23.678Z,32.15
2023-04-29T10:48:55.463Z,31.92
2023-04-29T10:51:33.280Z,31.52
2023-04-29T10:54:10.600Z,33.50
2023-04-29T10:56:43.579Z,32.67
2023-04-29T11:01:48.564Z,33.05
2023-04-29T11:04:17.580Z,33.75
2023-04-29T11:06:48.190Z,32.40
2023-04-29T11:09:28.676Z,30.30
2023-04-29T11:12:05.468Z,30.70
2023-04-29T11:14:40.109Z,32.95
2023-04-29T11:17:10.905Z,31.92
2023-04-29T11:19:42.590Z,33.00
2023-04-29T11:22:27.241Z,30.70
2023-04-29T11:25:00.303Z,31.77
2023-04-29T11:29:59.287Z,32.58
2023-04-29T11:32:28.464Z,33.83
2023-04-29T11:34:56.894Z,33.22
2023-04-29T11:37:27.117Z,33.45
2023-04-29T11:40:02.240Z,35.15
2023-04-29T11:42:30.485Z,34.53
2023-04-29T11:45:00.380Z,34.53
2023-04-29T11:47:31.019Z,32.08
2023-04-29T11:50:07.998Z,38.50
2023-04-29T11:52:38.129Z,36.72
2023-04-29T11:55:09.607Z,35.28
2023-04-29T11:57:38.021Z,35.47
2023-04-29T12:00:08.673Z,38.17
2023-04-29T12:02:37.383Z,34.78
2023-04-29T12:05:08.082Z,32.03
2023-04-29T12:07:36.948Z,33.17
2023-04-29T12:10:07.450Z,36.22
2023-04-29T12:12:37.013Z,31.08
2023-04-29T12:15:06.539Z,30.98
2023-04-29T12:17:35.057Z,31.48
2023-04-29T12:20:03.638Z,30.38
2023-04-29T12:22:32.931Z,31.60
2023-04-29T12:25:01.038Z,29.83
2023-04-29T12:27:29.113Z,27.83
2023-04-29T12:29:58.685Z,30.27
2023-04-29T12:32:26.772Z,31.13
2023-04-29T12:34:54.974Z,26.90
2023-04-29T12:37:24.462Z,26.85
2023-04-29T12:39:52.808Z,26.60
2023-04-29T12:42:20.966Z,23.67
2023-04-29T12:44:49.563Z,25.30
2023-04-29T12:47:19.073Z,24.30
2023-04-29T12:49:49.264Z,23.73
2023-04-29T12:52:17.270Z,25.50
2023-04-29T12:54:45.357Z,25.67
2023-04-29T12:57:14.465Z,26.23
2023-04-29T12:59:42.557Z,25.92
2023-04-29T13:02:10.669Z,25.70
2023-04-29T13:04:40.509Z,26.25
2023-04-29T13:07:08.891Z,25.08
2023-04-29T13:09:38.124Z,23.95
2023-04-29T13:12:09.508Z,25.50
2023-04-29T13:14:37.789Z,25.17
2023-04-29T13:17:06.738Z,26.40
2023-04-29T13:19:46.764Z,26.92
2023-04-29T13:22:20.454Z,29.83
2023-04-29T13:24:48.600Z,26.92
2023-04-29T13:27:16.618Z,27.50
2023-04-29T13:29:44.633Z,26.33
2023-04-29T13:32:12.852Z,26.50
2023-04-29T13:34:43.255Z,25.85
2023-04-29T13:37:11.479Z,25.23
2023-04-29T13:39:41.660Z,24.95
2023-04-29T13:42:15.437Z,25.45
2023-04-29T13:44:52.306Z,26.52
2023-04-29T13:47:26.148Z,26.33
2023-04-29T13:55:35.954Z,25.17
2023-04-29T13:58:40.375Z,25.13
2023-04-29T14:01:10.290Z,23.73
2023-04-29T14:03:27.372Z,25.70
2023-04-29T14:05:55.521Z,23.05
2023-04-29T14:08:23.610Z,25.58
2023-04-29T14:10:53.323Z,25.48
2023-04-29T14:13:21.372Z,24.95
2023-04-29T14:15:49.672Z,25.98
2023-04-29T14:18:17.699Z,24.73
2023-04-29T14:20:45.985Z,24.52
2023-04-29T14:23:13.980Z,24.85
2023-04-29T14:25:42.025Z,24.20
2023-04-29T14:28:11.452Z,23.08
2023-04-29T14:30:39.554Z,23.92
2023-04-29T14:33:08.111Z,23.55
2023-04-29T14:35:36.141Z,23.90
2023-04-29T14:38:04.409Z,24.00
2023-04-29T14:40:32.372Z,23.23
2023-04-29T14:43:01.870Z,22.95
2023-04-29T14:45:32.061Z,24.25
2023-04-29T14:48:00.127Z,23.77
2023-04-29T14:50:28.314Z,23.35
2023-04-29T14:52:57.790Z,22.58
2023-04-29T14:55:25.794Z,25.27
2023-04-29T14:57:53.844Z,23.52
2023-04-29T15:00:22.038Z,21.67
2023-04-29T15:02:53.488Z,21.65
2023-04-29T15:05:21.916Z,21.95
2023-04-29T15:07:51.412Z,19.88
2023-04-29T15:10:19.817Z,21.25
2023-04-29T15:12:47.872Z,22.17
2023-04-29T15:15:15.908Z,20.55
2023-04-29T15:17:44.532Z,21.90
2023-04-29T15:20:14.355Z,21.55
2023-04-29T15:22:42.751Z,20.27
2023-04-29T15:25:11.092Z,22.00
2023-04-29T15:27:39.736Z,21.90
2023-04-29T15:30:09.711Z,21.42
2023-04-29T15:32:37.835Z,22.00
2023-04-29T15:35:06.686Z,20.48
2023-04-29T15:37:36.524Z,21.40
2023-04-29T15:40:05.023Z,22.05
2023-04-29T15:42:33.037Z,21.08
2023-04-29T15:45:01.119Z,20.23
2023-04-29T15:47:29.705Z,19.70
2023-04-29T15:49:57.711Z,20.40
2023-04-29T15:52:25.766Z,21.13
2023-04-29T15:54:55.116Z,23.13
2023-04-29T15:57:23.248Z,22.40
2023-04-29T15:59:51.267Z,21.55
2023-04-29T16:02:20.490Z,23.20
2023-04-29T16:04:48.469Z,21.50
2023-04-29T16:07:16.483Z,21.95
2023-04-29T16:09:44.701Z,21.08
2023-04-29T16:12:14.209Z,22.08
2023-04-29T16:14:42.254Z,22.95
2023-04-29T16:17:10.327Z,21.42
2023-04-29T16:19:38.357Z,21.40
2023-04-29T16:22:06.364Z,20.13
2023-04-29T16:24:34.592Z,21.90
2023-04-29T16:27:02.867Z,20.23
2023-04-29T16:29:32.256Z,20.27
2023-04-29T16:32:00.364Z,19.90
2023-04-29T16:34:28.796Z,20.30
2023-04-29T16:36:56.897Z,20.25
2023-04-29T16:39:24.961Z,21.05
2023-04-29T16:41:53.014Z,19.55
2023-04-29T16:44:21.234Z,20.88
2023-04-29T16:46:51.539Z,20.48
2023-04-29T16:49:25.782Z,21.23
2023-04-29T16:51:54.623Z,20.77
2023-04-29T16:54:22.669Z,19.42
2023-04-29T16:56:51.420Z,21.27
2023-04-29T16:59:19.892Z,19.55
2023-04-29T17:01:48.424Z,18.35
2023-04-29T17:04:18.328Z,19.33
2023-04-29T17:06:46.759Z,20.27
2023-04-29T17:09:15.825Z,19.10
2023-04-29T17:11:43.976Z,20.08
2023-04-29T17:14:11.986Z,20.02
2023-04-29T17:16:40.024Z,19.10
2023-04-29T17:19:08.185Z,20.05
2023-04-29T17:21:37.585Z,19.33
2023-04-29T17:24:06.080Z,19.48
2023-04-29T17:26:34.095Z,19.98
2023-04-29T17:29:02.129Z,17.67
2023-04-29T17:31:44.758Z,19.20
2023-04-29T17:34:18.590Z,19.25
2023-04-29T17:36:48.630Z,19.15
2023-04-29T17:39:16.820Z,20.65
2023-04-29T17:41:44.930Z,21.15
2023-04-29T17:44:13.207Z,19.95
2023-04-29T17:46:42.688Z,20.60
2023-04-29T17:49:11.802Z,19.60
2023-04-29T17:51:40.300Z,19.67
2023-04-29T17:54:10.392Z,21.73
2023-04-29T17:56:39.404Z,19.73
2023-04-29T17:59:08.738Z,20.73
2023-04-29T18:01:38.408Z,21.88
2023-04-29T18:04:07.686Z,21.83
2023-04-29T18:06:36.036Z,22.08
2023-04-29T18:09:04.563Z,22.27
2023-04-29T18:11:35.109Z,22.48
2023-04-29T18:14:03.399Z,22.90
2023-04-29T18:16:31.415Z,21.45
2023-04-29T18:18:59.466Z,22.17
2023-04-29T18:21:29.073Z,22.40
2023-04-29T18:23:57.817Z,22.48
2023-04-29T18:26:26.035Z,21.10
2023-04-29T18:28:56.136Z,22.10
2023-04-29T18:31:26.667Z,22.52
2023-04-29T18:33:54.766Z,21.63
2023-04-29T18:36:23.751Z,22.67
2023-04-29T18:38:52.487Z,21.83
2023-04-29T18:41:21.403Z,23.00
2023-04-29T18:43:49.429Z,21.80
2023-04-29T18:46:18.931Z,20.45
2023-04-29T18:48:46.997Z,21.65
2023-04-29T18:51:14.976Z,21.33
2023-04-29T18:53:43.072Z,21.77
2023-04-29T18:56:11.446Z,21.80
2023-04-29T18:58:39.493Z,22.27
2023-04-29T19:01:08.009Z,21.50
2023-04-29T19:03:37.670Z,21.15
2023-04-29T19:06:05.874Z,20.95
2023-04-29T19:08:34.247Z,20.30
2023-04-29T19:11:03.866Z,21.15
2023-04-29T19:13:32.263Z,21.30
2023-04-29T19:16:00.742Z,20.45
2023-04-29T19:18:30.018Z,20.45
2023-04-29T19:20:59.667Z,21.60
2023-04-29T19:23:27.679Z,20.63
2023-04-29T19:25:55.773Z,20.88
2023-04-29T19:28:24.166Z,21.50
2023-04-29T19:30:52.163Z,20.17
2023-04-29T19:33:20.232Z,20.85
2023-04-29T19:35:48.908Z,20.70
2023-04-29T19:38:18.689Z,25.88
2023-04-29T19:40:46.707Z,26.60
2023-04-29T19:43:15.422Z,29.33
2023-04-29T19:45:43.455Z,24.83
2023-04-29T19:48:11.545Z,26.45
2023-04-29T19:50:39.886Z,22.98
2023-04-29T19:53:08.281Z,20.77
2023-04-29T19:55:39.120Z,19.75
2023-04-29T19:58:07.426Z,18.90
2023-04-29T20:00:36.373Z,18.90
2023-04-29T20:03:04.795Z,19.48
2023-04-29T20:05:32.890Z,20.10
2023-04-29T20:08:00.979Z,19.77
2023-04-29T20:10:30.138Z,20.30
2023-04-29T20:12:59.769Z,20.38
2023-04-29T20:15:27.806Z,20.92
2023-04-29T20:17:56.064Z,19.73
2023-04-29T20:20:25.081Z,20.35
2023-04-29T20:22:57.848Z,21.15
2023-04-29T20:25:27.233Z,19.65
2023-04-29T20:27:56.713Z,21.27
2023-04-29T20:30:27.136Z,22.58
2023-04-29T20:32:55.263Z,23.00
2023-04-29T20:35:23.450Z,25.67
2023-04-29T20:37:51.830Z,27.88
2023-04-29T20:40:20.164Z,29.13
2023-04-29T20:42:48.770Z,30.77
2023-04-29T20:45:16.949Z,30.38
2023-04-29T20:47:46.598Z,30.52
2023-04-29T20:50:15.423Z,29.42
2023-04-29T20:52:43.671Z,28.50
2023-04-29T20:55:12.188Z,27.33
2023-04-29T20:57:40.405Z,24.63
2023-04-29T21:00:10.178Z,28.85
2023-04-29T21:02:38.396Z,23.92
2023-04-29T21:05:09.955Z,23.67
2023-04-29T21:07:38.238Z,27.73
2023-04-29T21:10:07.787Z,34.50
2023-04-29T21:12:35.834Z,31.17
2023-04-29T21:15:04.393Z,29.55
2023-04-29T21:17:32.495Z,32.50
2023-04-29T21:20:00.908Z,33.50
2023-04-29T21:22:30.251Z,33.60
2023-04-29T21:24:58.297Z,33.42
2023-04-29T21:27:26.363Z,37.25
2023-04-29T21:29:57.766Z,36.55
2023-04-29T21:32:25.862Z,38.38
2023-04-29T21:34:53.900Z,43.45
2023-04-29T21:37:22.461Z,53.15
2023-04-29T21:39:52.557Z,54.45
2023-04-29T21:42:23.249Z,56.67
2023-04-29T21:44:51.493Z,52.97
2023-04-29T21:47:19.779Z,54.15
2023-04-29T21:49:49.037Z,55.50
2023-04-29T21:52:17.569Z,55.03
2023-04-29T21:54:45.654Z,55.15
2023-04-29T21:57:15.411Z,58.80
2023-04-29T21:59:43.705Z,55.20
2023-04-29T22:02:22.048Z,53.03
2023-04-29T22:04:51.412Z,43.38
2023-04-29T22:07:19.611Z,40.22
2023-04-29T22:09:49.702Z,38.95
2023-04-29T22:12:20.173Z,35.30
2023-04-29T22:14:48.415Z,35.17
2023-04-29T22:17:16.504Z,32.15
2023-04-29T22:19:44.882Z,31.65
2023-04-29T22:22:12.924Z,31.63
2023-04-29T22:24:41.041Z,29.83
2023-04-29T22:27:09.187Z,31.27
2023-04-29T22:29:39.420Z,30.55
2023-04-29T22:32:07.758Z,32.00
2023-04-29T22:34:35.994Z,31.77
2023-04-29T22:37:04.049Z,31.52
2023-04-29T22:39:32.205Z,33.05
2023-04-29T22:42:00.265Z,34.58
2023-04-29T22:44:28.326Z,32.83
2023-04-29T22:46:57.982Z,32.58
2023-04-29T22:49:26.192Z,32.70
2023-04-29T22:51:54.221Z,33.10
2023-04-29T22:54:22.452Z,29.85
2023-04-29T22:56:50.498Z,30.80
2023-04-29T22:59:18.666Z,31.88
2023-04-29T23:01:46.710Z,31.10
2023-04-29T23:04:16.268Z,30.75
2023-04-29T23:06:44.402Z,28.95
2023-04-29T23:09:12.729Z,30.08
2023-04-29T23:11:40.745Z,30.85
2023-04-29T23:14:08.734Z,30.30
2023-04-29T23:16:36.824Z,31.35
2023-04-29T23:19:04.861Z,29.08
2023-04-29T23:21:34.677Z,36.08
2023-04-29T23:24:02.717Z,31.15
2023-04-29T23:26:30.774Z,33.45
2023-04-29T23:28:58.780Z,33.42
2023-04-29T23:31:26.950Z,30.50
2023-04-29T23:33:55.185Z,29.42
2023-04-29T23:36:23.151Z,29.50
2023-04-29T23:38:52.554Z,30.88
2023-04-29T23:41:20.823Z,30.13
2023-04-29T23:43:48.875Z,30.13
2023-04-29T23:46:16.904Z,28.65
2023-04-29T23:48:44.957Z,27.35
2023-04-29T23:51:12.954Z,27.13
2023-04-29T23:53:40.984Z,28.38
2023-04-29T23:56:10.570Z,28.02
2023-04-29T23:58:38.592Z,28.48
